sensor_id;sensor_type;location;lat;lon;timestamp;temperature;humidity
44833;DHT22;30569;51.252;9.830;2023-10-31T00:01:27;13.80;99.90
44833;DHT22;30569;51.252;9.830;2023-10-31T00:03:52;13.80;99.90
44833;DHT22;30569;51.252;9.830;2023-10-31T00:06:18;13.80;99.90
44833;DHT22;30569;51.252;9.830;2023-10-31T00:08:43;13.80;99.90
44833;DHT22;30569;51.252;9.830;2023-10-31T00:11:09;13.90;99.90
44833;DHT22;30569;51.252;9.830;2023-10-31T00:13:34;13.80;99.90
44833;DHT22;30569;51.252;9.830;2023-10-31T00:16:00;13.90;99.90
44833;DHT22;30569;51.252;9.830;2023-10-31T00:18:25;13.90;99.90
44833;DHT22;30569;51.252;9.830;2023-10-31T00:20:51;13.90;99.90
44833;DHT22;30569;51.252;9.830;2023-10-31T00:23:17;13.90;99.90
44833;DHT22;30569;51.252;9.830;2023-10-31T00:25:42;13.90;99.90
44833;DHT22;30569;51.252;9.830;2023-10-31T00:28:08;13.90;99.90
44833;DHT22;30569;51.252;9.830;2023-10-31T00:30:33;13.70;99.90
44833;DHT22;30569;51.252;9.830;2023-10-31T00:32:59;13.80;99.90
44833;DHT22;30569;51.252;9.830;2023-10-31T00:35:24;13.70;99.90
44833;DHT22;30569;51.252;9.830;2023-10-31T00:37:50;13.70;99.90
44833;DHT22;30569;51.252;9.830;2023-10-31T00:40:15;13.80;99.90
44833;DHT22;30569;51.252;9.830;2023-10-31T00:42:42;13.80;99.90
44833;DHT22;30569;51.252;9.830;2023-10-31T00:45:08;13.80;99.90
44833;DHT22;30569;51.252;9.830;2023-10-31T00:47:34;13.80;99.90
44833;DHT22;30569;51.252;9.830;2023-10-31T00:49:59;13.80;99.90
44833;DHT22;30569;51.252;9.830;2023-10-31T00:52:25;13.90;99.90
44833;DHT22;30569;51.252;9.830;2023-10-31T00:54:50;13.90;99.90
44833;DHT22;30569;51.252;9.830;2023-10-31T00:57:16;13.90;99.90
44833;DHT22;30569;51.252;9.830;2023-10-31T00:59:41;13.90;99.90
44833;DHT22;30569;51.252;9.830;2023-10-31T01:02:07;13.90;99.90
44833;DHT22;30569;51.252;9.830;2023-10-31T01:04:33;13.60;99.90
44833;DHT22;30569;51.252;9.830;2023-10-31T01:06:58;13.50;99.90
44833;DHT22;30569;51.252;9.830;2023-10-31T01:09:24;13.40;99.90
44833;DHT22;30569;51.252;9.830;2023-10-31T01:11:49;13.30;99.90
44833;DHT22;30569;51.252;9.830;2023-10-31T01:14:15;13.30;99.90
44833;DHT22;30569;51.252;9.830;2023-10-31T01:16:41;13.50;99.90
44833;DHT22;30569;51.252;9.830;2023-10-31T01:19:06;13.50;99.90
44833;DHT22;30569;51.252;9.830;2023-10-31T01:21:32;13.60;99.90
44833;DHT22;30569;51.252;9.830;2023-10-31T01:23:59;13.60;99.90
44833;DHT22;30569;51.252;9.830;2023-10-31T01:26:24;13.70;99.90
44833;DHT22;30569;51.252;9.830;2023-10-31T01:28:50;13.50;99.90
44833;DHT22;30569;51.252;9.830;2023-10-31T01:31:15;13.60;99.90
44833;DHT22;30569;51.252;9.830;2023-10-31T01:33:41;13.50;99.90
44833;DHT22;30569;51.252;9.830;2023-10-31T01:36:07;13.60;99.90
44833;DHT22;30569;51.252;9.830;2023-10-31T01:38:32;13.60;99.90
44833;DHT22;30569;51.252;9.830;2023-10-31T01:40:58;13.40;99.90
44833;DHT22;30569;51.252;9.830;2023-10-31T01:43:34;13.30;99.90
44833;DHT22;30569;51.252;9.830;2023-10-31T01:45:59;13.40;99.90
44833;DHT22;30569;51.252;9.830;2023-10-31T01:48:27;13.40;99.90
44833;DHT22;30569;51.252;9.830;2023-10-31T01:50:53;13.40;99.90
44833;DHT22;30569;51.252;9.830;2023-10-31T01:53:18;13.40;99.90
44833;DHT22;30569;51.252;9.830;2023-10-31T01:55:45;13.40;99.90
44833;DHT22;30569;51.252;9.830;2023-10-31T02:00:40;13.50;99.90
44833;DHT22;30569;51.252;9.830;2023-10-31T02:03:09;13.60;99.90
44833;DHT22;30569;51.252;9.830;2023-10-31T02:05:35;13.70;99.90
44833;DHT22;30569;51.252;9.830;2023-10-31T02:08:05;13.80;99.90
44833;DHT22;30569;51.252;9.830;2023-10-31T02:10:30;13.80;99.90
44833;DHT22;30569;51.252;9.830;2023-10-31T02:12:56;13.50;99.90
44833;DHT22;30569;51.252;9.830;2023-10-31T02:15:21;13.50;99.90
44833;DHT22;30569;51.252;9.830;2023-10-31T02:17:47;13.90;99.90
44833;DHT22;30569;51.252;9.830;2023-10-31T02:20:12;13.50;99.90
44833;DHT22;30569;51.252;9.830;2023-10-31T02:22:38;13.60;99.90
44833;DHT22;30569;51.252;9.830;2023-10-31T02:25:15;13.30;99.90
44833;DHT22;30569;51.252;9.830;2023-10-31T02:27:41;13.30;99.90
44833;DHT22;30569;51.252;9.830;2023-10-31T02:30:07;13.50;99.90
44833;DHT22;30569;51.252;9.830;2023-10-31T02:32:32;13.50;99.90
44833;DHT22;30569;51.252;9.830;2023-10-31T02:34:58;13.30;99.90
44833;DHT22;30569;51.252;9.830;2023-10-31T02:37:23;13.10;99.90
44833;DHT22;30569;51.252;9.830;2023-10-31T02:39:49;13.10;99.90
44833;DHT22;30569;51.252;9.830;2023-10-31T02:42:14;12.90;99.90
44833;DHT22;30569;51.252;9.830;2023-10-31T02:44:40;12.80;99.90
44833;DHT22;30569;51.252;9.830;2023-10-31T02:47:06;12.60;99.90
44833;DHT22;30569;51.252;9.830;2023-10-31T02:49:31;12.80;99.90
44833;DHT22;30569;51.252;9.830;2023-10-31T02:51:56;12.80;99.90
44833;DHT22;30569;51.252;9.830;2023-10-31T02:54:22;12.80;99.90
44833;DHT22;30569;51.252;9.830;2023-10-31T02:56:47;12.50;99.90
44833;DHT22;30569;51.252;9.830;2023-10-31T02:59:13;12.60;99.90
44833;DHT22;30569;51.252;9.830;2023-10-31T03:01:38;12.40;99.90
44833;DHT22;30569;51.252;9.830;2023-10-31T03:04:04;12.30;99.90
44833;DHT22;30569;51.252;9.830;2023-10-31T03:06:30;12.30;99.90
44833;DHT22;30569;51.252;9.830;2023-10-31T03:08:55;12.40;99.90
44833;DHT22;30569;51.252;9.830;2023-10-31T03:11:25;12.60;99.90
44833;DHT22;30569;51.252;9.830;2023-10-31T03:13:51;12.60;99.90
44833;DHT22;30569;51.252;9.830;2023-10-31T03:16:18;12.70;99.90
44833;DHT22;30569;51.252;9.830;2023-10-31T03:18:43;11.90;99.90
44833;DHT22;30569;51.252;9.830;2023-10-31T03:21:09;12.10;99.90
44833;DHT22;30569;51.252;9.830;2023-10-31T03:23:34;12.20;99.90
44833;DHT22;30569;51.252;9.830;2023-10-31T03:26:00;12.20;99.90
44833;DHT22;30569;51.252;9.830;2023-10-31T03:28:25;12.20;99.90
44833;DHT22;30569;51.252;9.830;2023-10-31T03:30:51;12.20;99.90
44833;DHT22;30569;51.252;9.830;2023-10-31T03:33:16;12.10;99.90
44833;DHT22;30569;51.252;9.830;2023-10-31T03:35:43;12.00;99.90
44833;DHT22;30569;51.252;9.830;2023-10-31T03:38:08;12.10;99.90
44833;DHT22;30569;51.252;9.830;2023-10-31T03:40:34;12.30;99.90
44833;DHT22;30569;51.252;9.830;2023-10-31T03:42:59;12.30;99.90
44833;DHT22;30569;51.252;9.830;2023-10-31T03:45:25;12.30;99.90
44833;DHT22;30569;51.252;9.830;2023-10-31T03:47:51;12.30;99.90
44833;DHT22;30569;51.252;9.830;2023-10-31T03:50:16;12.40;99.90
44833;DHT22;30569;51.252;9.830;2023-10-31T03:52:42;12.50;99.90
44833;DHT22;30569;51.252;9.830;2023-10-31T03:55:08;12.70;99.90
44833;DHT22;30569;51.252;9.830;2023-10-31T03:57:33;12.70;99.90
44833;DHT22;30569;51.252;9.830;2023-10-31T03:59:59;12.70;99.90
44833;DHT22;30569;51.252;9.830;2023-10-31T04:02:25;12.60;99.90
44833;DHT22;30569;51.252;9.830;2023-10-31T04:04:50;12.50;99.90
44833;DHT22;30569;51.252;9.830;2023-10-31T04:07:16;12.40;99.90
44833;DHT22;30569;51.252;9.830;2023-10-31T04:09:42;12.50;99.90
44833;DHT22;30569;51.252;9.830;2023-10-31T04:12:08;12.60;99.90
44833;DHT22;30569;51.252;9.830;2023-10-31T04:14:34;12.50;99.90
44833;DHT22;30569;51.252;9.830;2023-10-31T04:16:59;12.40;99.90
44833;DHT22;30569;51.252;9.830;2023-10-31T04:19:25;12.30;99.90
44833;DHT22;30569;51.252;9.830;2023-10-31T04:21:53;12.20;99.90
44833;DHT22;30569;51.252;9.830;2023-10-31T04:24:19;11.90;99.90
44833;DHT22;30569;51.252;9.830;2023-10-31T04:26:44;12.00;99.90
44833;DHT22;30569;51.252;9.830;2023-10-31T04:29:10;12.00;99.90
44833;DHT22;30569;51.252;9.830;2023-10-31T04:31:35;12.00;99.90
44833;DHT22;30569;51.252;9.830;2023-10-31T04:34:01;12.10;99.90
44833;DHT22;30569;51.252;9.830;2023-10-31T04:36:26;12.20;99.90
44833;DHT22;30569;51.252;9.830;2023-10-31T04:38:52;11.70;99.90
44833;DHT22;30569;51.252;9.830;2023-10-31T04:41:17;11.70;99.90
44833;DHT22;30569;51.252;9.830;2023-10-31T04:43:43;11.60;99.90
44833;DHT22;30569;51.252;9.830;2023-10-31T04:46:08;11.50;99.90
44833;DHT22;30569;51.252;9.830;2023-10-31T04:48:34;11.60;99.90
44833;DHT22;30569;51.252;9.830;2023-10-31T04:50:59;11.90;99.90
44833;DHT22;30569;51.252;9.830;2023-10-31T04:53:25;11.60;99.90
44833;DHT22;30569;51.252;9.830;2023-10-31T04:55:50;11.70;99.90
44833;DHT22;30569;51.252;9.830;2023-10-31T04:58:16;11.90;99.90
44833;DHT22;30569;51.252;9.830;2023-10-31T05:00:41;12.00;99.90
44833;DHT22;30569;51.252;9.830;2023-10-31T05:03:07;12.00;99.90
44833;DHT22;30569;51.252;9.830;2023-10-31T05:05:32;12.00;99.90
44833;DHT22;30569;51.252;9.830;2023-10-31T05:07:58;11.30;99.90
44833;DHT22;30569;51.252;9.830;2023-10-31T05:10:24;11.60;99.90
44833;DHT22;30569;51.252;9.830;2023-10-31T05:12:50;11.40;99.90
44833;DHT22;30569;51.252;9.830;2023-10-31T05:15:16;11.60;99.90
44833;DHT22;30569;51.252;9.830;2023-10-31T05:17:41;11.70;99.90
44833;DHT22;30569;51.252;9.830;2023-10-31T05:20:07;11.80;99.90
44833;DHT22;30569;51.252;9.830;2023-10-31T05:22:34;11.60;99.90
44833;DHT22;30569;51.252;9.830;2023-10-31T05:24:59;11.70;99.90
44833;DHT22;30569;51.252;9.830;2023-10-31T05:27:25;11.80;99.90
44833;DHT22;30569;51.252;9.830;2023-10-31T05:29:50;11.70;99.90
44833;DHT22;30569;51.252;9.830;2023-10-31T05:32:16;11.80;99.90
44833;DHT22;30569;51.252;9.830;2023-10-31T05:34:42;11.50;99.90
44833;DHT22;30569;51.252;9.830;2023-10-31T05:37:07;11.40;99.90
44833;DHT22;30569;51.252;9.830;2023-10-31T05:39:33;11.40;99.90
44833;DHT22;30569;51.252;9.830;2023-10-31T05:41:58;11.20;99.90
44833;DHT22;30569;51.252;9.830;2023-10-31T05:44:24;11.20;99.90
44833;DHT22;30569;51.252;9.830;2023-10-31T05:46:49;10.90;99.90
44833;DHT22;30569;51.252;9.830;2023-10-31T05:49:15;11.10;99.90
44833;DHT22;30569;51.252;9.830;2023-10-31T05:51:41;11.00;99.90
44833;DHT22;30569;51.252;9.830;2023-10-31T05:54:07;11.30;99.90
44833;DHT22;30569;51.252;9.830;2023-10-31T05:56:33;11.30;99.90
44833;DHT22;30569;51.252;9.830;2023-10-31T05:58:59;11.30;99.90
44833;DHT22;30569;51.252;9.830;2023-10-31T06:01:24;11.30;99.90
44833;DHT22;30569;51.252;9.830;2023-10-31T06:03:50;11.40;99.90
44833;DHT22;30569;51.252;9.830;2023-10-31T06:06:15;11.80;99.90
44833;DHT22;30569;51.252;9.830;2023-10-31T06:08:41;11.50;99.90
44833;DHT22;30569;51.252;9.830;2023-10-31T06:11:07;11.70;99.90
44833;DHT22;30569;51.252;9.830;2023-10-31T06:13:33;11.80;99.90
44833;DHT22;30569;51.252;9.830;2023-10-31T06:16:00;11.60;99.90
44833;DHT22;30569;51.252;9.830;2023-10-31T06:20:53;11.70;99.90
44833;DHT22;30569;51.252;9.830;2023-10-31T06:23:18;11.30;99.90
44833;DHT22;30569;51.252;9.830;2023-10-31T06:25:44;11.40;99.90
44833;DHT22;30569;51.252;9.830;2023-10-31T06:28:09;11.50;99.90
44833;DHT22;30569;51.252;9.830;2023-10-31T06:30:35;11.50;99.90
44833;DHT22;30569;51.252;9.830;2023-10-31T06:33:02;11.70;99.90
44833;DHT22;30569;51.252;9.830;2023-10-31T06:35:27;11.60;99.90
44833;DHT22;30569;51.252;9.830;2023-10-31T06:37:55;11.60;99.90
44833;DHT22;30569;51.252;9.830;2023-10-31T06:40:21;11.50;99.90
44833;DHT22;30569;51.252;9.830;2023-10-31T06:42:47;11.50;99.90
44833;DHT22;30569;51.252;9.830;2023-10-31T06:45:12;11.60;99.90
44833;DHT22;30569;51.252;9.830;2023-10-31T06:47:38;11.50;99.90
44833;DHT22;30569;51.252;9.830;2023-10-31T06:50:04;11.80;99.90
44833;DHT22;30569;51.252;9.830;2023-10-31T06:52:29;11.60;99.90
44833;DHT22;30569;51.252;9.830;2023-10-31T06:54:55;11.70;99.90
44833;DHT22;30569;51.252;9.830;2023-10-31T06:57:20;11.60;99.90
44833;DHT22;30569;51.252;9.830;2023-10-31T06:59:46;11.60;99.90
44833;DHT22;30569;51.252;9.830;2023-10-31T07:02:12;11.60;99.90
44833;DHT22;30569;51.252;9.830;2023-10-31T07:04:37;11.50;99.90
44833;DHT22;30569;51.252;9.830;2023-10-31T07:07:03;11.30;99.90
44833;DHT22;30569;51.252;9.830;2023-10-31T07:09:28;11.20;99.90
44833;DHT22;30569;51.252;9.830;2023-10-31T07:11:54;11.20;99.90
44833;DHT22;30569;51.252;9.830;2023-10-31T07:14:20;11.30;99.90
44833;DHT22;30569;51.252;9.830;2023-10-31T07:16:45;11.20;99.90
44833;DHT22;30569;51.252;9.830;2023-10-31T07:19:11;11.10;99.90
44833;DHT22;30569;51.252;9.830;2023-10-31T07:21:37;11.40;99.90
44833;DHT22;30569;51.252;9.830;2023-10-31T07:24:02;11.20;99.90
44833;DHT22;30569;51.252;9.830;2023-10-31T07:26:28;11.40;99.90
44833;DHT22;30569;51.252;9.830;2023-10-31T07:28:54;11.30;99.90
44833;DHT22;30569;51.252;9.830;2023-10-31T07:31:19;11.00;99.90
44833;DHT22;30569;51.252;9.830;2023-10-31T07:33:45;10.80;99.90
44833;DHT22;30569;51.252;9.830;2023-10-31T07:36:11;11.10;99.90
44833;DHT22;30569;51.252;9.830;2023-10-31T07:38:37;11.40;99.90
44833;DHT22;30569;51.252;9.830;2023-10-31T07:41:03;11.60;99.90
44833;DHT22;30569;51.252;9.830;2023-10-31T07:43:29;11.60;99.90
44833;DHT22;30569;51.252;9.830;2023-10-31T07:45:54;11.60;99.90
44833;DHT22;30569;51.252;9.830;2023-10-31T07:48:20;11.20;99.90
44833;DHT22;30569;51.252;9.830;2023-10-31T07:50:45;11.50;99.90
44833;DHT22;30569;51.252;9.830;2023-10-31T07:53:11;11.40;99.90
44833;DHT22;30569;51.252;9.830;2023-10-31T07:55:36;11.40;99.90
44833;DHT22;30569;51.252;9.830;2023-10-31T07:58:02;11.40;99.90
44833;DHT22;30569;51.252;9.830;2023-10-31T08:00:27;11.60;99.90
44833;DHT22;30569;51.252;9.830;2023-10-31T08:02:53;11.60;99.90
44833;DHT22;30569;51.252;9.830;2023-10-31T08:05:18;11.50;99.90
44833;DHT22;30569;51.252;9.830;2023-10-31T08:07:44;11.50;99.90
44833;DHT22;30569;51.252;9.830;2023-10-31T08:10:10;11.60;99.90
44833;DHT22;30569;51.252;9.830;2023-10-31T08:12:35;11.70;99.90
44833;DHT22;30569;51.252;9.830;2023-10-31T08:15:02;12.00;99.90
44833;DHT22;30569;51.252;9.830;2023-10-31T08:17:27;12.00;99.90
44833;DHT22;30569;51.252;9.830;2023-10-31T08:19:53;11.80;99.90
44833;DHT22;30569;51.252;9.830;2023-10-31T08:22:18;11.80;99.90
44833;DHT22;30569;51.252;9.830;2023-10-31T08:24:44;11.80;99.90
44833;DHT22;30569;51.252;9.830;2023-10-31T08:27:10;11.30;99.90
44833;DHT22;30569;51.252;9.830;2023-10-31T08:29:36;11.30;99.90
44833;DHT22;30569;51.252;9.830;2023-10-31T08:32:02;11.30;99.90
44833;DHT22;30569;51.252;9.830;2023-10-31T08:34:27;11.50;99.90
44833;DHT22;30569;51.252;9.830;2023-10-31T08:36:53;11.30;99.90
44833;DHT22;30569;51.252;9.830;2023-10-31T08:39:18;11.50;99.90
44833;DHT22;30569;51.252;9.830;2023-10-31T08:41:55;11.40;99.90
44833;DHT22;30569;51.252;9.830;2023-10-31T08:44:21;11.60;99.90
44833;DHT22;30569;51.252;9.830;2023-10-31T08:46:47;11.70;99.90
44833;DHT22;30569;51.252;9.830;2023-10-31T08:49:14;11.80;99.90
44833;DHT22;30569;51.252;9.830;2023-10-31T08:51:39;11.90;99.90
44833;DHT22;30569;51.252;9.830;2023-10-31T08:54:05;11.90;99.90
44833;DHT22;30569;51.252;9.830;2023-10-31T08:56:31;11.90;99.90
44833;DHT22;30569;51.252;9.830;2023-10-31T08:58:56;11.90;99.90
44833;DHT22;30569;51.252;9.830;2023-10-31T09:01:22;11.50;99.90
44833;DHT22;30569;51.252;9.830;2023-10-31T09:03:47;11.50;99.90
44833;DHT22;30569;51.252;9.830;2023-10-31T09:06:13;11.40;99.90
44833;DHT22;30569;51.252;9.830;2023-10-31T09:08:39;11.50;99.90
44833;DHT22;30569;51.252;9.830;2023-10-31T09:11:05;11.30;99.90
44833;DHT22;30569;51.252;9.830;2023-10-31T09:13:31;11.50;99.90
44833;DHT22;30569;51.252;9.830;2023-10-31T09:16:00;11.20;99.90
44833;DHT22;30569;51.252;9.830;2023-10-31T09:18:26;11.30;99.90
44833;DHT22;30569;51.252;9.830;2023-10-31T09:20:51;11.20;99.90
44833;DHT22;30569;51.252;9.830;2023-10-31T09:23:17;11.40;99.90
44833;DHT22;30569;51.252;9.830;2023-10-31T09:25:43;11.50;99.90
44833;DHT22;30569;51.252;9.830;2023-10-31T09:28:09;11.50;99.90
44833;DHT22;30569;51.252;9.830;2023-10-31T09:30:35;11.10;99.90
44833;DHT22;30569;51.252;9.830;2023-10-31T09:33:00;11.40;99.90
44833;DHT22;30569;51.252;9.830;2023-10-31T09:35:26;11.40;99.90
44833;DHT22;30569;51.252;9.830;2023-10-31T09:37:52;11.50;99.90
44833;DHT22;30569;51.252;9.830;2023-10-31T09:40:17;11.40;99.90
44833;DHT22;30569;51.252;9.830;2023-10-31T09:42:47;11.60;99.90
44833;DHT22;30569;51.252;9.830;2023-10-31T09:45:13;11.30;99.90
44833;DHT22;30569;51.252;9.830;2023-10-31T09:47:39;11.30;99.90
44833;DHT22;30569;51.252;9.830;2023-10-31T09:50:06;11.30;99.90
44833;DHT22;30569;51.252;9.830;2023-10-31T09:52:33;11.20;99.90
44833;DHT22;30569;51.252;9.830;2023-10-31T09:55:01;11.30;99.90
44833;DHT22;30569;51.252;9.830;2023-10-31T09:57:27;11.30;99.90
44833;DHT22;30569;51.252;9.830;2023-10-31T09:59:53;11.60;99.90
44833;DHT22;30569;51.252;9.830;2023-10-31T10:02:18;11.90;99.90
44833;DHT22;30569;51.252;9.830;2023-10-31T10:04:44;11.90;99.90
44833;DHT22;30569;51.252;9.830;2023-10-31T10:07:15;12.00;99.90
44833;DHT22;30569;51.252;9.830;2023-10-31T10:09:42;11.90;99.90
44833;DHT22;30569;51.252;9.830;2023-10-31T10:12:11;11.90;99.90
44833;DHT22;30569;51.252;9.830;2023-10-31T10:14:38;12.00;99.90
44833;DHT22;30569;51.252;9.830;2023-10-31T10:17:14;12.10;99.90
44833;DHT22;30569;51.252;9.830;2023-10-31T10:19:40;11.80;99.90
44833;DHT22;30569;51.252;9.830;2023-10-31T10:22:06;11.90;99.90
44833;DHT22;30569;51.252;9.830;2023-10-31T10:24:31;11.80;99.90
44833;DHT22;30569;51.252;9.830;2023-10-31T10:26:57;11.90;99.90
44833;DHT22;30569;51.252;9.830;2023-10-31T10:29:24;12.20;99.90
44833;DHT22;30569;51.252;9.830;2023-10-31T10:31:49;12.50;99.90
44833;DHT22;30569;51.252;9.830;2023-10-31T10:34:16;12.50;99.90
44833;DHT22;30569;51.252;9.830;2023-10-31T10:36:47;12.60;99.90
44833;DHT22;30569;51.252;9.830;2023-10-31T10:39:18;12.70;99.90
44833;DHT22;30569;51.252;9.830;2023-10-31T10:41:46;12.80;99.90
44833;DHT22;30569;51.252;9.830;2023-10-31T10:44:13;12.90;99.90
44833;DHT22;30569;51.252;9.830;2023-10-31T10:46:40;13.00;99.90
44833;DHT22;30569;51.252;9.830;2023-10-31T10:49:07;13.20;99.90
44833;DHT22;30569;51.252;9.830;2023-10-31T10:51:43;13.10;99.90
44833;DHT22;30569;51.252;9.830;2023-10-31T10:54:15;13.20;99.90
44833;DHT22;30569;51.252;9.830;2023-10-31T10:56:46;13.30;99.90
44833;DHT22;30569;51.252;9.830;2023-10-31T10:59:19;13.30;99.90
44833;DHT22;30569;51.252;9.830;2023-10-31T11:01:46;13.40;99.90
44833;DHT22;30569;51.252;9.830;2023-10-31T11:04:14;13.40;99.90
44833;DHT22;30569;51.252;9.830;2023-10-31T11:06:40;13.10;99.90
44833;DHT22;30569;51.252;9.830;2023-10-31T11:09:07;13.30;99.90
44833;DHT22;30569;51.252;9.830;2023-10-31T11:11:33;13.10;99.90
44833;DHT22;30569;51.252;9.830;2023-10-31T11:14:00;13.10;99.90
44833;DHT22;30569;51.252;9.830;2023-10-31T11:16:33;13.40;99.90
44833;DHT22;30569;51.252;9.830;2023-10-31T11:19:00;13.40;99.90
44833;DHT22;30569;51.252;9.830;2023-10-31T11:21:31;13.00;99.90
44833;DHT22;30569;51.252;9.830;2023-10-31T11:24:00;12.70;99.90
44833;DHT22;30569;51.252;9.830;2023-10-31T11:26:28;13.00;99.90
44833;DHT22;30569;51.252;9.830;2023-10-31T11:29:07;13.20;99.90
44833;DHT22;30569;51.252;9.830;2023-10-31T11:31:34;13.00;99.90
44833;DHT22;30569;51.252;9.830;2023-10-31T11:34:02;12.20;99.90
44833;DHT22;30569;51.252;9.830;2023-10-31T11:36:30;12.50;99.90
44833;DHT22;30569;51.252;9.830;2023-10-31T11:39:11;12.70;99.90
44833;DHT22;30569;51.252;9.830;2023-10-31T11:41:40;12.70;99.90
44833;DHT22;30569;51.252;9.830;2023-10-31T11:44:10;12.80;99.90
44833;DHT22;30569;51.252;9.830;2023-10-31T11:46:36;13.10;99.90
44833;DHT22;30569;51.252;9.830;2023-10-31T11:49:01;13.20;99.90
44833;DHT22;30569;51.252;9.830;2023-10-31T11:51:27;13.20;99.90
44833;DHT22;30569;51.252;9.830;2023-10-31T11:53:53;13.00;99.90
44833;DHT22;30569;51.252;9.830;2023-10-31T11:56:20;13.20;99.90
44833;DHT22;30569;51.252;9.830;2023-10-31T11:58:55;13.20;99.90
44833;DHT22;30569;51.252;9.830;2023-10-31T12:01:21;12.70;99.90
44833;DHT22;30569;51.252;9.830;2023-10-31T12:03:46;12.60;99.90
44833;DHT22;30569;51.252;9.830;2023-10-31T12:06:15;12.30;99.90
44833;DHT22;30569;51.252;9.830;2023-10-31T12:08:42;12.20;99.90
44833;DHT22;30569;51.252;9.830;2023-10-31T12:11:15;12.60;99.90
44833;DHT22;30569;51.252;9.830;2023-10-31T12:13:50;12.30;99.90
44833;DHT22;30569;51.252;9.830;2023-10-31T12:16:16;12.80;99.90
44833;DHT22;30569;51.252;9.830;2023-10-31T12:18:42;12.90;99.90
44833;DHT22;30569;51.252;9.830;2023-10-31T12:21:08;12.90;99.90
44833;DHT22;30569;51.252;9.830;2023-10-31T12:23:34;12.70;99.90
44833;DHT22;30569;51.252;9.830;2023-10-31T12:25:59;12.80;99.90
44833;DHT22;30569;51.252;9.830;2023-10-31T12:28:26;12.80;99.90
44833;DHT22;30569;51.252;9.830;2023-10-31T12:30:53;13.00;99.90
44833;DHT22;30569;51.252;9.830;2023-10-31T12:33:20;13.20;99.90
44833;DHT22;30569;51.252;9.830;2023-10-31T12:35:47;13.40;99.90
44833;DHT22;30569;51.252;9.830;2023-10-31T12:38:14;13.30;99.90
44833;DHT22;30569;51.252;9.830;2023-10-31T12:40:42;13.50;99.90
44833;DHT22;30569;51.252;9.830;2023-10-31T12:43:08;13.70;99.90
44833;DHT22;30569;51.252;9.830;2023-10-31T12:45:34;13.90;99.90
44833;DHT22;30569;51.252;9.830;2023-10-31T12:48:07;13.90;99.90
44833;DHT22;30569;51.252;9.830;2023-10-31T12:50:34;13.70;99.90
44833;DHT22;30569;51.252;9.830;2023-10-31T12:53:02;13.60;99.90
44833;DHT22;30569;51.252;9.830;2023-10-31T12:55:29;13.40;99.90
44833;DHT22;30569;51.252;9.830;2023-10-31T13:00:22;13.30;99.90
44833;DHT22;30569;51.252;9.830;2023-10-31T13:03:06;13.20;99.90
44833;DHT22;30569;51.252;9.830;2023-10-31T13:05:33;13.60;99.90
44833;DHT22;30569;51.252;9.830;2023-10-31T13:07:59;13.60;99.90
44833;DHT22;30569;51.252;9.830;2023-10-31T13:10:27;13.50;99.90
44833;DHT22;30569;51.252;9.830;2023-10-31T13:12:53;13.50;99.90
44833;DHT22;30569;51.252;9.830;2023-10-31T13:15:20;13.60;99.60
44833;DHT22;30569;51.252;9.830;2023-10-31T13:17:50;13.60;99.90
44833;DHT22;30569;51.252;9.830;2023-10-31T13:20:18;13.60;99.90
44833;DHT22;30569;51.252;9.830;2023-10-31T13:22:44;13.70;99.90
44833;DHT22;30569;51.252;9.830;2023-10-31T13:25:11;13.90;99.90
44833;DHT22;30569;51.252;9.830;2023-10-31T13:27:39;13.90;99.90
44833;DHT22;30569;51.252;9.830;2023-10-31T13:30:06;13.70;99.90
44833;DHT22;30569;51.252;9.830;2023-10-31T13:32:33;13.80;99.90
44833;DHT22;30569;51.252;9.830;2023-10-31T13:34:59;13.30;99.90
44833;DHT22;30569;51.252;9.830;2023-10-31T13:37:25;13.30;99.90
44833;DHT22;30569;51.252;9.830;2023-10-31T13:39:50;13.20;99.90
44833;DHT22;30569;51.252;9.830;2023-10-31T13:42:16;13.20;99.90
44833;DHT22;30569;51.252;9.830;2023-10-31T13:44:42;13.20;99.90
44833;DHT22;30569;51.252;9.830;2023-10-31T13:47:07;13.10;99.90
44833;DHT22;30569;51.252;9.830;2023-10-31T13:49:33;13.10;99.90
44833;DHT22;30569;51.252;9.830;2023-10-31T13:51:59;13.20;99.90
44833;DHT22;30569;51.252;9.830;2023-10-31T13:54:25;13.40;99.90
44833;DHT22;30569;51.252;9.830;2023-10-31T13:56:51;13.40;99.90
44833;DHT22;30569;51.252;9.830;2023-10-31T13:59:17;13.30;99.90
44833;DHT22;30569;51.252;9.830;2023-10-31T14:01:44;13.20;99.90
44833;DHT22;30569;51.252;9.830;2023-10-31T14:04:11;13.10;99.90
44833;DHT22;30569;51.252;9.830;2023-10-31T14:06:39;13.30;99.90
44833;DHT22;30569;51.252;9.830;2023-10-31T14:09:05;13.40;99.90
44833;DHT22;30569;51.252;9.830;2023-10-31T14:11:32;13.00;99.90
44833;DHT22;30569;51.252;9.830;2023-10-31T14:13:58;12.70;99.90
44833;DHT22;30569;51.252;9.830;2023-10-31T14:16:34;12.60;99.90
44833;DHT22;30569;51.252;9.830;2023-10-31T14:19:01;12.80;99.90
44833;DHT22;30569;51.252;9.830;2023-10-31T14:21:28;12.90;99.90
44833;DHT22;30569;51.252;9.830;2023-10-31T14:23:54;12.90;99.90
44833;DHT22;30569;51.252;9.830;2023-10-31T14:26:20;12.90;99.90
44833;DHT22;30569;51.252;9.830;2023-10-31T14:28:46;13.00;99.90
44833;DHT22;30569;51.252;9.830;2023-10-31T14:31:12;13.10;99.90
44833;DHT22;30569;51.252;9.830;2023-10-31T14:33:38;13.30;99.90
44833;DHT22;30569;51.252;9.830;2023-10-31T14:36:04;13.50;99.90
44833;DHT22;30569;51.252;9.830;2023-10-31T14:38:29;13.60;99.90
44833;DHT22;30569;51.252;9.830;2023-10-31T14:40:55;13.60;99.10
44833;DHT22;30569;51.252;9.830;2023-10-31T14:43:20;13.30;99.50
44833;DHT22;30569;51.252;9.830;2023-10-31T14:45:46;13.20;99.90
44833;DHT22;30569;51.252;9.830;2023-10-31T14:48:11;13.20;99.90
44833;DHT22;30569;51.252;9.830;2023-10-31T14:50:37;13.20;99.80
44833;DHT22;30569;51.252;9.830;2023-10-31T14:53:04;12.90;99.90
44833;DHT22;30569;51.252;9.830;2023-10-31T14:55:30;12.70;99.90
44833;DHT22;30569;51.252;9.830;2023-10-31T14:57:56;12.70;99.90
44833;DHT22;30569;51.252;9.830;2023-10-31T15:00:21;12.90;99.90
44833;DHT22;30569;51.252;9.830;2023-10-31T15:02:47;13.10;99.90
44833;DHT22;30569;51.252;9.830;2023-10-31T15:05:12;12.90;99.90
44833;DHT22;30569;51.252;9.830;2023-10-31T15:07:38;13.00;99.90
44833;DHT22;30569;51.252;9.830;2023-10-31T15:10:06;12.90;99.90
44833;DHT22;30569;51.252;9.830;2023-10-31T15:12:32;12.70;99.90
44833;DHT22;30569;51.252;9.830;2023-10-31T15:14:58;12.80;99.80
44833;DHT22;30569;51.252;9.830;2023-10-31T15:17:23;12.80;99.90
44833;DHT22;30569;51.252;9.830;2023-10-31T15:19:49;12.80;99.90
44833;DHT22;30569;51.252;9.830;2023-10-31T15:22:15;12.70;99.90
44833;DHT22;30569;51.252;9.830;2023-10-31T15:24:40;12.50;99.90
44833;DHT22;30569;51.252;9.830;2023-10-31T15:27:06;12.50;99.90
44833;DHT22;30569;51.252;9.830;2023-10-31T15:29:31;12.70;99.90
44833;DHT22;30569;51.252;9.830;2023-10-31T15:31:57;12.70;99.90